Time;durP1;ratioP1;P1;durP2;ratioP2;P2;SDS_P1;SDS_P2;PMS_P1;PMS_P2;Temp;Humidity;BMP_temperature;BMP_pressure;BME280_temperature;BME280_humidity;BME280_pressure;Samples;Min_cycle;Max_cycle;Signal;HPM_P1;HPM_P2
2023/11/14 00:03:52;;;;;;;10.80;2.10;;;;;;;9.73;100.00;97106.97;15267895;19;20085;-49
2023/11/14 00:09:17;;;;;;;11.55;2.30;;;;;;;9.79;100.00;97111.63;15268964;19;20022;-48
2023/11/14 00:14:48;;;;;;;6.88;1.98;;;;;;;9.85;100.00;97102.78;15267218;19;20017;-48
2023/11/14 00:20:15;;;;;;;5.93;1.95;;;;;;;9.92;100.00;97096.66;15270432;19;20014;-47
2023/11/14 00:25:40;;;;;;;6.32;1.63;;;;;;;9.93;100.00;97074.94;15263315;19;20027;-50
2023/11/14 00:31:09;;;;;;;8.55;1.98;;;;;;;9.92;100.00;97091.28;15270542;19;20015;-47
2023/11/14 00:36:34;;;;;;;8.18;2.10;;;;;;;9.90;100.00;97114.84;15267378;19;20014;-47
2023/11/14 00:41:59;;;;;;;7.13;1.95;;;;;;;9.88;100.00;97112.31;15265399;19;20022;-50
2023/11/14 00:47:28;;;;;;;7.85;2.00;;;;;;;9.88;100.00;97125.75;15262804;19;20471;-48
2023/11/14 00:52:53;;;;;;;9.07;1.88;;;;;;;9.85;100.00;97137.75;15261949;19;20540;-48
2023/11/14 00:58:20;;;;;;;7.22;1.90;;;;;;;9.83;100.00;97131.72;15261953;19;20021;-51
2023/11/14 01:03:47;;;;;;;7.53;1.92;;;;;;;9.83;100.00;97112.88;15277226;19;20085;-46
2023/11/14 01:09:18;;;;;;;8.68;2.00;;;;;;;9.86;100.00;97098.25;15279388;19;20022;-48
2023/11/14 01:14:42;;;;;;;10.63;2.00;;;;;;;9.81;100.00;97106.88;15273996;19;20382;-48
2023/11/14 01:20:10;;;;;;;7.95;2.00;;;;;;;9.75;100.00;97109.50;15283662;19;20042;-48
2023/11/14 01:25:35;;;;;;;6.75;1.83;;;;;;;9.72;100.00;97105.31;15277452;19;20014;-47
2023/11/14 01:31:01;;;;;;;12.75;2.35;;;;;;;9.72;100.00;97108.00;15275025;19;20018;-50
2023/11/14 01:36:28;;;;;;;7.80;2.00;;;;;;;9.68;100.00;97104.03;15279446;19;20459;-50
2023/11/14 01:41:53;;;;;;;7.40;1.92;;;;;;;9.67;100.00;97115.81;15277767;19;21079;-48
2023/11/14 01:47:17;;;;;;;9.52;2.15;;;;;;;9.67;100.00;97105.88;15276655;19;20355;-49
2023/11/14 01:52:46;;;;;;;8.55;1.90;;;;;;;9.67;100.00;97105.06;15275701;19;20018;-50
2023/11/14 01:58:11;;;;;;;7.53;2.38;;;;;;;9.59;100.00;97081.78;15278785;19;20018;-47
2023/11/14 02:03:36;;;;;;;11.80;2.20;;;;;;;9.49;100.00;97094.69;15269742;19;20094;-46
2023/11/14 02:09:11;;;;;;;9.73;1.95;;;;;;;9.39;100.00;97101.19;15276427;19;20019;-46
2023/11/14 02:14:36;;;;;;;8.05;2.25;;;;;;;9.29;100.00;97111.38;15273574;19;20015;-46
2023/11/14 02:20:04;;;;;;;7.18;2.00;;;;;;;9.22;100.00;97107.75;15277992;19;20022;-48
2023/11/14 02:25:32;;;;;;;9.38;1.70;;;;;;;9.19;100.00;97116.19;15273915;19;20014;-47
2023/11/14 02:30:58;;;;;;;9.80;2.03;;;;;;;9.19;100.00;97106.28;15279069;19;20010;-46
2023/11/14 02:36:23;;;;;;;9.60;2.08;;;;;;;9.20;100.00;97118.72;15270048;19;20010;-47
2023/11/14 02:41:51;;;;;;;8.48;1.95;;;;;;;9.17;100.00;97100.25;15277726;19;20354;-47
2023/11/14 02:47:16;;;;;;;7.35;1.83;;;;;;;9.18;100.00;97099.25;15272196;19;20014;-47
2023/11/14 02:52:45;;;;;;;7.50;1.42;;;;;;;9.17;100.00;97092.19;15275105;19;20037;-47
2023/11/14 02:58:13;;;;;;;7.55;1.70;;;;;;;9.20;100.00;97102.59;15275278;19;20026;-47
2023/11/14 03:03:39;;;;;;;8.00;1.80;;;;;;;9.22;100.00;97078.22;15267605;19;20043;-46
2023/11/14 03:09:10;;;;;;;6.75;1.60;;;;;;;9.29;100.00;97094.41;15268044;19;20018;-47
2023/11/14 03:14:39;;;;;;;6.40;1.90;;;;;;;9.31;100.00;97101.28;15269871;19;20388;-48
2023/11/14 03:20:04;;;;;;;8.50;2.20;;;;;;;9.30;100.00;97090.72;15267451;19;20023;-47
2023/11/14 03:25:37;;;;;;;9.77;1.90;;;;;;;9.30;100.00;97094.22;15268461;19;20015;-51
2023/11/14 03:31:05;;;;;;;6.35;1.58;;;;;;;9.21;100.00;97087.28;15272360;19;20014;-52
2023/11/14 03:36:30;;;;;;;6.13;1.70;;;;;;;9.17;100.00;97108.31;15269676;19;20539;-50
2023/11/14 03:42:01;;;;;;;8.80;2.10;;;;;;;9.21;100.00;97130.28;15266488;19;20345;-45
2023/11/14 03:47:28;;;;;;;8.60;1.87;;;;;;;9.12;100.00;97110.72;15272234;19;20054;-45
2023/11/14 03:52:53;;;;;;;9.32;2.20;;;;;;;9.14;100.00;97122.13;15270044;19;20018;-46
2023/11/14 03:58:18;;;;;;;11.23;2.50;;;;;;;9.14;100.00;97124.81;15270505;19;20097;-50
2023/11/14 04:03:48;;;;;;;7.75;1.95;;;;;;;9.16;100.00;97120.09;15264375;19;20014;-45
2023/11/14 04:09:20;;;;;;;7.78;1.92;;;;;;;9.17;100.00;97110.19;15269115;19;20022;-48
2023/11/14 04:14:47;;;;;;;7.95;1.70;;;;;;;9.15;100.00;97102.28;15266979;19;20014;-47
2023/11/14 04:20:17;;;;;;;6.53;1.70;;;;;;;9.32;100.00;97088.69;15270165;19;20010;-51
2023/11/14 04:25:42;;;;;;;10.40;2.08;;;;;;;9.38;100.00;97107.59;15267058;19;20015;-47
2023/11/14 04:31:08;;;;;;;9.35;1.83;;;;;;;9.43;100.00;97098.13;15266339;19;20025;-49
2023/11/14 04:36:37;;;;;;;9.88;2.10;;;;;;;9.39;100.00;97111.09;15267531;19;20031;-48
2023/11/14 04:42:01;;;;;;;7.43;2.08;;;;;;;9.42;100.00;97132.22;15260800;19;20347;-59
2023/11/14 04:47:26;;;;;;;8.85;2.10;;;;;;;9.41;100.00;97104.50;15264448;19;20014;-46
2023/11/14 04:52:55;;;;;;;8.02;1.90;;;;;;;9.44;100.00;97119.44;15265455;19;20029;-45
2023/11/14 04:58:19;;;;;;;8.50;1.90;;;;;;;9.46;100.00;97127.31;15267114;19;20038;-48
2023/11/14 05:03:44;;;;;;;9.55;1.88;;;;;;;9.43;100.00;97149.19;15255548;19;20041;-47
2023/11/14 05:09:18;;;;;;;9.48;1.83;;;;;;;9.40;100.00;97147.72;15253229;19;20026;-49
2023/11/14 05:14:43;;;;;;;8.55;1.90;;;;;;;9.34;100.00;97137.72;15247852;19;20019;-47
2023/11/14 05:20:07;;;;;;;7.43;2.13;;;;;;;9.26;100.00;97149.38;15266938;19;20794;-47
2023/11/14 05:25:35;;;;;;;10.07;2.17;;;;;;;9.22;100.00;97145.38;15262072;19;20015;-49
2023/11/14 05:31:00;;;;;;;9.48;2.10;;;;;;;9.21;100.00;97151.78;15263580;19;20476;-46
2023/11/14 05:36:25;;;;;;;11.57;2.40;;;;;;;9.27;100.00;97145.69;15255211;19;20075;-47
2023/11/14 05:41:53;;;;;;;8.02;2.03;;;;;;;9.33;100.00;97144.09;15262353;19;20018;-48
2023/11/14 05:47:18;;;;;;;8.93;2.20;;;;;;;9.33;100.00;97142.25;15262478;19;20110;-45
2023/11/14 05:52:43;;;;;;;8.10;2.00;;;;;;;9.29;100.00;97138.25;15266580;19;20006;-49
2023/11/14 05:58:10;;;;;;;8.60;2.17;;;;;;;9.28;100.00;97135.75;15278932;19;20025;-45
2023/11/14 06:03:35;;;;;;;9.68;2.22;;;;;;;9.31;100.00;97125.47;15274093;19;20022;-45
2023/11/14 06:09:06;;;;;;;11.68;2.50;;;;;;;9.29;100.00;97127.50;15270435;19;20054;-46
2023/11/14 06:14:33;;;;;;;8.53;2.10;;;;;;;9.24;100.00;97152.22;15270716;19;20266;-45
2023/11/14 06:19:58;;;;;;;8.10;2.10;;;;;;;9.17;100.00;97142.44;15274269;19;20381;-44
2023/11/14 06:25:22;;;;;;;9.63;2.33;;;;;;;9.14;100.00;97142.78;15277154;19;20012;-47
2023/11/14 06:30:50;;;;;;;8.15;2.35;;;;;;;9.14;100.00;97158.91;15278776;19;20014;-45
2023/11/14 06:36:16;;;;;;;9.00;2.22;;;;;;;9.19;100.00;97165.41;15276606;19;20039;-47
2023/11/14 06:41:42;;;;;;;8.10;2.08;;;;;;;9.20;100.00;97171.59;15275792;19;20018;-46
2023/11/14 06:47:10;;;;;;;9.43;2.28;;;;;;;9.25;100.00;97159.28;15278156;19;20014;-48
2023/11/14 06:52:35;;;;;;;8.65;2.05;;;;;;;9.28;100.00;97178.75;15265775;19;20031;-46
2023/11/14 06:58:00;;;;;;;10.98;2.45;;;;;;;9.32;100.00;97190.81;15273401;19;20081;-46
2023/11/14 07:03:30;;;;;;;9.82;2.40;;;;;;;9.40;100.00;97212.22;15273846;19;20335;-46
2023/11/14 07:08:57;;;;;;;11.03;2.40;;;;;;;9.47;100.00;97209.63;15272163;19;20042;-46
2023/11/14 07:14:24;;;;;;;9.88;2.13;;;;;;;9.49;100.00;97188.78;15271013;19;20745;-46
2023/11/14 07:19:54;;;;;;;9.10;2.30;;;;;;;9.56;100.00;97204.00;15274616;19;20389;-48
2023/11/14 07:25:18;;;;;;;11.32;2.60;;;;;;;9.61;100.00;97206.13;15268674;19;20337;-46
2023/11/14 07:30:44;;;;;;;10.90;2.30;;;;;;;9.66;100.00;97192.13;15276445;19;20013;-45
2023/11/14 07:36:13;;;;;;;9.40;2.33;;;;;;;9.69;100.00;97208.72;15271874;19;20062;-47
2023/11/14 07:41:38;;;;;;;9.32;2.50;;;;;;;9.68;100.00;97212.41;15268313;19;20834;-49
2023/11/14 07:47:04;;;;;;;9.57;2.17;;;;;;;9.67;100.00;97202.69;15272020;19;20355;-50
2023/11/14 07:52:40;;;;;;;10.30;2.22;;;;;;;9.74;100.00;97221.59;15271370;19;20035;-45
2023/11/14 07:58:05;;;;;;;11.23;2.55;;;;;;;9.86;100.00;97241.63;15266867;19;20094;-45
2023/11/14 08:03:29;;;;;;;9.63;2.25;;;;;;;10.01;100.00;97201.25;15269408;19;20012;-47
2023/11/14 08:08:58;;;;;;;10.55;2.20;;;;;;;10.08;100.00;97201.34;15269081;19;20026;-47
2023/11/14 08:14:23;;;;;;;9.20;2.40;;;;;;;10.11;100.00;97210.91;15267800;19;20018;-46
2023/11/14 08:19:48;;;;;;;13.02;2.47;;;;;;;10.18;100.00;97215.34;15272262;19;20014;-46
2023/11/14 08:25:16;;;;;;;9.88;2.10;;;;;;;10.35;100.00;97212.44;15271033;19;20018;-48
2023/11/14 08:30:41;;;;;;;10.10;2.45;;;;;;;10.42;100.00;97223.31;15264996;19;20784;-45
2023/11/14 08:36:07;;;;;;;11.85;2.55;;;;;;;10.51;100.00;97215.94;15269446;19;20015;-49
2023/11/14 08:41:35;;;;;;;10.07;2.42;;;;;;;10.59;100.00;97231.97;15269531;19;20074;-46
2023/11/14 08:47:00;;;;;;;9.52;2.55;;;;;;;10.66;100.00;97278.66;15267173;19;20089;-59
2023/11/14 08:52:24;;;;;;;8.68;1.98;;;;;;;10.73;100.00;97267.97;15266373;19;20027;-44
2023/11/14 08:57:51;;;;;;;9.15;2.50;;;;;;;10.81;100.00;97272.41;15267839;19;20022;-44
2023/11/14 09:03:17;;;;;;;9.70;2.50;;;;;;;10.83;100.00;97290.03;15256699;19;20463;-48
2023/11/14 09:08:42;;;;;;;8.60;2.15;;;;;;;10.86;100.00;97241.16;15263492;19;20025;-48
2023/11/14 09:14:09;;;;;;;7.70;2.20;;;;;;;10.96;100.00;97224.69;15264610;19;20022;-47
2023/11/14 09:19:34;;;;;;;7.40;2.20;;;;;;;11.04;100.00;97221.84;15268200;19;20014;-46
2023/11/14 09:24:58;;;;;;;8.45;2.13;;;;;;;11.05;100.00;97212.75;15275300;19;20500;-45
2023/11/14 09:30:25;;;;;;;8.73;2.35;;;;;;;11.11;100.00;97211.13;15275208;19;20021;-44
2023/11/14 09:35:50;;;;;;;10.75;2.42;;;;;;;11.19;100.00;97221.75;15274820;19;20416;-44
2023/11/14 09:41:16;;;;;;;9.68;1.95;;;;;;;11.23;100.00;97241.09;15279486;19;20770;-44
2023/11/14 09:46:48;;;;;;;8.65;2.17;;;;;;;11.32;100.00;97231.84;15281845;19;20021;-47
2023/11/14 09:52:15;;;;;;;9.27;2.13;;;;;;;11.47;100.00;97253.31;15281288;19;20086;-44
2023/11/14 09:57:39;;;;;;;8.07;2.10;;;;;;;11.57;100.00;97267.28;15279575;19;20086;-45
2023/11/14 10:03:09;;;;;;;9.30;1.85;;;;;;;11.64;100.00;97253.03;15275366;19;20078;-46
2023/11/14 10:08:36;;;;;;;6.32;1.70;;;;;;;11.69;100.00;97256.78;15268197;19;20535;-45
2023/11/14 10:14:14;;;;;;;11.57;2.33;;;;;;;11.74;100.00;97226.53;15272191;19;20033;-45
2023/11/14 10:19:42;;;;;;;9.80;2.22;;;;;;;11.68;100.00;97254.28;15278534;19;20024;-47
2023/11/14 10:25:10;;;;;;;7.22;2.15;;;;;;;11.57;100.00;97278.06;15271601;19;20019;-46
2023/11/14 10:30:56;;;;;;;9.30;1.95;;;;;;;11.59;100.00;97287.81;15272446;19;20022;-47
2023/11/14 10:36:52;;;;;;;9.18;2.08;;;;;;;11.69;100.00;97255.94;15274653;19;20018;-45
2023/11/14 10:42:19;;;;;;;9.55;2.17;;;;;;;11.76;100.00;97250.59;15273390;19;20038;-48
2023/11/14 10:47:46;;;;;;;8.77;2.25;;;;;;;11.80;100.00;97219.50;15274663;19;20025;-47
2023/11/14 10:53:13;;;;;;;8.60;1.95;;;;;;;11.80;100.00;97214.09;15272895;19;20023;-48
2023/11/14 10:58:40;;;;;;;7.93;2.00;;;;;;;11.82;100.00;97223.66;15276479;19;20357;-48
2023/11/14 11:04:05;;;;;;;8.48;2.20;;;;;;;11.81;100.00;97231.97;15271016;19;20017;-44
2023/11/14 11:09:32;;;;;;;8.32;2.20;;;;;;;11.80;100.00;97247.31;15265067;19;20078;-44
2023/11/14 11:14:57;;;;;;;8.50;2.00;;;;;;;11.80;100.00;97247.31;15270030;19;20543;-45
2023/11/14 11:20:26;;;;;;;6.75;2.00;;;;;;;11.79;100.00;97258.31;15276653;19;20013;-47
2023/11/14 11:25:55;;;;;;;7.05;1.83;;;;;;;11.83;100.00;97240.66;15270669;19;20033;-53
2023/11/14 11:31:24;;;;;;;8.88;2.00;;;;;;;11.79;100.00;97218.66;15269185;19;20042;-49
2023/11/14 11:36:48;;;;;;;8.30;2.20;;;;;;;11.78;100.00;97229.66;15271395;19;20078;-54
2023/11/14 11:42:16;;;;;;;5.55;1.88;;;;;;;11.86;100.00;97210.59;15260778;19;20078;-55
2023/11/14 11:47:42;;;;;;;8.02;1.95;;;;;;;11.97;100.00;97223.53;15269440;19;20015;-56
2023/11/14 11:53:10;;;;;;;8.45;2.20;;;;;;;12.04;100.00;97214.66;15269012;19;20337;-54
2023/11/14 11:58:52;;;;;;;6.80;1.73;;;;;;;12.01;100.00;97216.72;15271095;19;20039;-51
2023/11/14 12:04:18;;;;;;;6.60;1.90;;;;;;;11.98;100.00;97190.13;15266424;19;20021;-55
2023/11/14 12:09:51;;;;;;;7.00;2.05;;;;;;;11.96;100.00;97212.94;15267584;19;20022;-57
2023/11/14 12:15:20;;;;;;;6.05;1.75;;;;;;;11.91;100.00;97188.41;15258028;19;20022;-51
2023/11/14 12:20:44;;;;;;;7.50;1.90;;;;;;;11.94;100.00;97172.63;15263674;19;20014;-51
2023/11/14 12:26:10;;;;;;;7.85;1.80;;;;;;;11.99;100.00;97164.81;15263694;19;20018;-52
2023/11/14 12:31:37;;;;;;;11.13;2.22;;;;;;;12.03;100.00;97176.03;15264542;19;20479;-56
2023/11/14 12:37:09;;;;;;;7.82;1.88;;;;;;;12.08;100.00;97145.72;15268729;19;20485;-51
2023/11/14 12:42:35;;;;;;;8.07;1.85;;;;;;;12.12;100.00;97163.19;15261981;19;20363;-52
2023/11/14 12:48:10;;;;;;;7.35;1.92;;;;;;;12.14;100.00;97144.94;15239376;19;20102;-55
2023/11/14 12:53:35;;;;;;;7.75;1.98;;;;;;;12.13;100.00;97135.16;15267038;19;20024;-57
2023/11/14 13:15:08;;;;;;;7.13;1.55;;;;;;;12.21;100.00;97132.28;15331532;19;20073;-55
2023/11/14 13:20:34;;;;;;;6.10;1.50;;;;;;;12.09;100.00;97142.00;15337364;19;20014;-56
2023/11/14 13:25:58;;;;;;;5.82;1.65;;;;;;;12.01;100.00;97138.47;15334675;19;20016;-55
2023/11/14 13:31:25;;;;;;;5.05;1.40;;;;;;;11.92;100.00;97142.34;15335565;19;20093;-56
2023/11/14 13:36:50;;;;;;;4.78;1.40;;;;;;;11.86;100.00;97143.13;15340574;19;20031;-56
2023/11/14 13:42:15;;;;;;;6.40;1.65;;;;;;;11.82;100.00;97139.16;15333556;19;20031;-55
2023/11/14 13:47:43;;;;;;;4.68;1.30;;;;;;;11.74;100.00;97175.25;15340198;19;20734;-56
2023/11/14 13:53:07;;;;;;;4.05;1.35;;;;;;;11.61;100.00;97167.91;15331811;19;20018;-55
2023/11/14 13:58:35;;;;;;;4.18;1.30;;;;;;;11.40;100.00;97161.56;15334455;19;20025;-56
2023/11/14 14:04:03;;;;;;;4.53;1.20;;;;;;;11.23;100.00;97152.97;15330106;19;20025;-57
2023/11/14 14:09:28;;;;;;;4.88;1.40;;;;;;;11.17;100.00;97131.34;15338782;19;20016;-54
2023/11/14 14:14:52;;;;;;;6.07;1.48;;;;;;;11.08;100.00;97120.72;15276488;19;20018;-54
2023/11/14 14:20:21;;;;;;;6.25;1.27;;;;;;;11.04;100.00;97116.75;15272942;19;20615;-57
2023/11/14 14:25:46;;;;;;;8.00;1.60;;;;;;;11.04;100.00;97114.03;15270493;19;20026;-53
2023/11/14 14:31:18;;;;;;;5.18;1.52;;;;;;;11.06;100.00;97124.63;15277600;19;20027;-56
2023/11/14 14:36:46;;;;;;;4.22;1.23;;;;;;;11.07;100.00;97110.13;15279781;19;20028;-53
2023/11/14 14:42:12;;;;;;;6.07;1.38;;;;;;;11.02;100.00;97110.72;15273044;19;20022;-53
2023/11/14 14:47:38;;;;;;;4.38;1.20;;;;;;;10.97;100.00;97121.25;15279586;19;20026;-51
2023/11/14 14:53:06;;;;;;;5.03;1.25;;;;;;;10.98;100.00;97117.53;15274770;19;20098;-54
2023/11/14 14:58:32;;;;;;;3.72;1.23;;;;;;;10.97;100.00;97118.56;15281656;19;20364;-53
2023/11/14 15:03:57;;;;;;;3.72;1.30;;;;;;;11.00;100.00;97107.38;15273658;19;20021;-53
2023/11/14 15:09:28;;;;;;;4.18;1.35;;;;;;;11.01;100.00;97114.44;15281405;19;20017;-54
2023/11/14 15:15:06;;;;;;;4.40;1.15;;;;;;;11.00;100.00;97107.38;15275553;19;20039;-52
2023/11/14 15:20:32;;;;;;;4.13;1.35;;;;;;;11.05;100.00;97126.50;15276296;19;20630;-52
2023/11/14 15:25:59;;;;;;;4.57;1.35;;;;;;;11.08;100.00;97131.50;15273967;19;20778;-55
2023/11/14 15:31:23;;;;;;;5.72;1.40;;;;;;;11.10;100.00;97128.59;15272314;19;20018;-51
2023/11/14 15:36:48;;;;;;;4.68;1.33;;;;;;;11.09;100.00;97129.63;15274824;19;20043;-53
2023/11/14 15:42:15;;;;;;;4.30;1.30;;;;;;;11.08;100.00;97125.25;15271050;19;20466;-52
2023/11/14 15:47:40;;;;;;;6.28;1.48;;;;;;;11.07;100.00;97121.75;15266783;19;21430;-53
2023/11/14 15:53:05;;;;;;;5.18;1.30;;;;;;;11.06;100.00;97114.69;15267205;19;20029;-52
2023/11/14 15:58:32;;;;;;;5.40;1.60;;;;;;;11.09;100.00;97106.22;15273437;19;20011;-53
2023/11/14 16:03:57;;;;;;;5.18;1.60;;;;;;;11.10;100.00;97110.59;15261573;19;20021;-56
2023/11/14 16:09:21;;;;;;;5.97;1.40;;;;;;;11.09;100.00;97127.78;15271791;19;20018;-55
2023/11/14 16:14:57;;;;;;;6.07;1.48;;;;;;;11.06;100.00;97130.84;15266989;19;20021;-55
2023/11/14 16:20:22;;;;;;;6.35;1.60;;;;;;;11.06;100.00;97127.31;15265018;19;20021;-55
2023/11/14 16:25:46;;;;;;;4.90;1.33;;;;;;;11.03;100.00;97116.94;15267723;19;20097;-52
2023/11/14 16:31:13;;;;;;;5.80;1.48;;;;;;;11.01;100.00;97108.22;15269799;19;20025;-53
2023/11/14 16:36:39;;;;;;;5.97;1.45;;;;;;;10.98;100.00;97104.06;15271601;19;20014;-51
2023/11/14 16:42:05;;;;;;;7.43;1.60;;;;;;;10.93;100.00;97090.34;15262298;19;20018;-54
2023/11/14 16:47:32;;;;;;;6.13;1.55;;;;;;;10.90;100.00;97071.88;15271662;19;20022;-54
2023/11/14 16:52:56;;;;;;;5.95;1.70;;;;;;;10.83;100.00;97065.59;15262824;19;20017;-53
2023/11/14 16:58:21;;;;;;;6.32;1.80;;;;;;;10.78;100.00;97072.41;15270886;19;20029;-55
2023/11/14 17:03:51;;;;;;;6.40;1.60;;;;;;;10.78;100.00;97067.03;15263056;19;20022;-55
2023/11/14 17:09:16;;;;;;;9.98;2.08;;;;;;;10.78;100.00;97060.81;15267659;19;20371;-53
2023/11/14 17:14:47;;;;;;;8.00;2.00;;;;;;;10.78;100.00;97056.25;15262412;19;20022;-55
2023/11/14 17:20:14;;;;;;;7.07;1.90;;;;;;;10.77;100.00;97051.88;15270018;19;20654;-51
2023/11/14 17:25:41;;;;;;;5.55;1.55;;;;;;;10.77;100.00;97057.28;15258524;19;20267;-55
2023/11/14 17:31:06;;;;;;;4.30;1.45;;;;;;;10.79;100.00;97057.91;15266395;19;20025;-55
2023/11/14 17:36:34;;;;;;;9.60;1.83;;;;;;;10.84;100.00;97054.63;15265109;19;20022;-55
2023/11/14 17:41:59;;;;;;;7.32;1.50;;;;;;;10.78;100.00;97037.38;15266503;19;20015;-52
2023/11/14 17:47:24;;;;;;;6.47;1.60;;;;;;;10.77;100.00;97033.03;15272623;19;20037;-54
2023/11/14 17:52:52;;;;;;;7.82;1.80;;;;;;;10.80;100.00;97029.13;15277391;19;20760;-53
2023/11/14 17:58:22;;;;;;;5.07;1.70;;;;;;;10.80;100.00;97034.53;15276536;19;20010;-51
2023/11/14 18:03:46;;;;;;;4.47;1.40;;;;;;;10.81;100.00;97020.03;15276215;19;20029;-53
2023/11/14 18:09:15;;;;;;;4.18;1.33;;;;;;;10.86;100.00;97024.81;15282212;19;20020;-51
2023/11/14 18:14:46;;;;;;;4.78;1.30;;;;;;;10.91;100.00;97027.72;15275049;19;20029;-49
2023/11/14 18:20:19;;;;;;;4.00;1.27;;;;;;;10.95;100.00;97018.22;15281344;19;20013;-49
2023/11/14 18:25:47;;;;;;;3.45;1.27;;;;;;;10.97;100.00;97018.88;15249900;19;20022;-54
2023/11/14 18:31:13;;;;;;;4.55;1.17;;;;;;;10.99;100.00;97006.03;15271005;19;20018;-53
2023/11/14 18:36:38;;;;;;;4.22;1.17;;;;;;;10.98;100.00;96998.13;15276454;19;20544;-54
2023/11/14 18:42:05;;;;;;;6.40;1.33;;;;;;;11.01;100.00;97001.25;15276411;19;20614;-52
2023/11/14 18:47:30;;;;;;;7.88;1.48;;;;;;;10.99;100.00;96995.25;15279927;19;20517;-53
2023/11/14 18:52:55;;;;;;;4.75;1.40;;;;;;;10.98;100.00;96995.44;15273693;19;20029;-49
2023/11/14 18:58:17;;;;;;;4.75;1.10;;;;;;;10.94;100.00;96984.22;15280226;19;20048;-50
2023/11/14 19:03:43;;;;;;;4.38;1.30;;;;;;;10.87;100.00;96989.59;15270250;19;20034;-51
2023/11/14 19:09:07;;;;;;;2.88;0.98;;;;;;;10.78;100.00;96991.59;15281228;19;20475;-50
2023/11/14 19:14:37;;;;;;;3.25;1.20;;;;;;;10.68;100.00;96996.50;15267629;19;20010;-50
2023/11/14 19:20:03;;;;;;;8.88;1.42;;;;;;;10.62;100.00;96998.13;15269095;19;20014;-52
2023/11/14 19:25:28;;;;;;;5.13;1.27;;;;;;;10.52;100.00;96997.66;15271397;19;20007;-52
2023/11/14 19:30:55;;;;;;;4.88;1.00;;;;;;;10.43;100.00;96996.94;15275744;19;20098;-53
2023/11/14 19:36:20;;;;;;;3.33;1.00;;;;;;;10.27;100.00;97003.44;15270353;19;20097;-51
2023/11/14 19:41:44;;;;;;;5.30;1.15;;;;;;;10.09;100.00;97003.88;15273896;19;20025;-53
2023/11/14 19:47:11;;;;;;;2.97;0.95;;;;;;;9.86;100.00;97015.69;15274057;19;20056;-55
2023/11/14 19:52:36;;;;;;;3.60;1.10;;;;;;;9.71;100.00;97029.19;15273031;19;20015;-51
2023/11/14 19:58:02;;;;;;;2.60;0.70;;;;;;;9.62;100.00;97029.47;15277911;19;20586;-53
2023/11/14 20:03:29;;;;;;;1.77;0.80;;;;;;;9.51;100.00;97046.94;15256986;19;20662;-51
2023/11/14 20:08:55;;;;;;;1.90;0.60;;;;;;;9.43;100.00;97052.41;15269902;19;20014;-51
2023/11/14 20:14:20;;;;;;;1.70;0.60;;;;;;;9.36;100.00;97079.22;15267666;19;20532;-53
2023/11/14 20:19:47;;;;;;;2.05;0.60;;;;;;;9.24;100.00;97082.38;15274898;19;20018;-49
2023/11/14 20:25:14;;;;;;;1.08;0.40;;;;;;;9.14;100.00;97099.81;15271422;19;20094;-48
2023/11/14 20:30:39;;;;;;;1.95;0.50;;;;;;;8.99;100.00;97095.25;15274145;19;20025;-51
2023/11/14 20:36:07;;;;;;;1.52;0.43;;;;;;;8.92;100.00;97094.31;15270350;19;20014;-54
2023/11/14 20:41:32;;;;;;;1.40;0.57;;;;;;;8.84;100.00;97089.00;15260216;19;20506;-52
2023/11/14 20:46:56;;;;;;;0.90;0.40;;;;;;;8.76;100.00;97100.69;15268663;19;20014;-51
2023/11/14 20:52:23;;;;;;;1.48;0.55;;;;;;;8.72;100.00;97104.75;15271858;19;20022;-52
2023/11/14 20:57:50;;;;;;;1.42;0.40;;;;;;;8.70;100.00;97099.53;15271415;19;20032;-51
2023/11/14 21:03:16;;;;;;;0.90;0.50;;;;;;;8.67;100.00;97099.06;15267406;19;20014;-52
2023/11/14 21:08:43;;;;;;;1.13;0.40;;;;;;;8.67;100.00;97091.03;15274213;19;20358;-55
2023/11/14 21:14:08;;;;;;;0.90;0.40;;;;;;;8.62;100.00;97097.78;15256491;19;20018;-53
2023/11/14 21:19:32;;;;;;;1.48;0.40;;;;;;;8.58;100.00;97104.53;15269052;19;20538;-51
2023/11/14 21:24:59;;;;;;;1.75;0.60;;;;;;;8.55;100.00;97107.56;15268800;19;20018;-50
2023/11/14 21:30:26;;;;;;;0.55;0.40;;;;;;;8.52;100.00;97109.78;15288537;19;20029;-52
2023/11/14 21:35:51;;;;;;;1.23;0.40;;;;;;;8.53;100.00;97111.47;15285873;19;21002;-49
2023/11/14 21:41:18;;;;;;;1.10;0.50;;;;;;;8.55;100.00;97110.25;15287985;19;20029;-50
2023/11/14 21:46:43;;;;;;;2.17;0.45;;;;;;;8.51;100.00;97108.97;15273371;19;20006;-52
2023/11/14 21:52:07;;;;;;;1.25;0.40;;;;;;;8.48;100.00;97101.28;15282495;19;20624;-52
2023/11/14 21:57:34;;;;;;;1.58;0.52;;;;;;;8.46;100.00;97108.63;15286485;19;20475;-55
2023/11/14 22:03:00;;;;;;;1.65;0.60;;;;;;;8.46;100.00;97101.44;15280247;19;20022;-49
2023/11/14 22:08:25;;;;;;;3.15;0.50;;;;;;;8.48;100.00;97106.63;15285142;19;20025;-51
2023/11/14 22:13:45;;;;;;;2.00;0.52;;;;;;;8.52;100.00;97113.31;15276201;19;20018;-50
2023/11/14 22:19:10;;;;;;;0.93;0.40;;;;;;;8.55;100.00;97115.63;15279999;19;20731;-50
2023/11/14 22:24:35;;;;;;;1.98;0.60;;;;;;;8.61;100.00;97112.22;15278211;19;20013;-51
2023/11/14 22:30:02;;;;;;;0.57;0.32;;;;;;;8.59;100.00;97118.78;15284079;19;20017;-51
2023/11/14 22:35:27;;;;;;;1.48;0.40;;;;;;;8.54;100.00;97103.22;15280266;19;20386;-54
2023/11/14 22:40:51;;;;;;;0.52;0.30;;;;;;;8.52;100.00;97125.91;15282538;19;20034;-55
2023/11/14 22:46:23;;;;;;;1.48;0.40;;;;;;;8.56;100.00;97128.03;15277555;19;20079;-53
2023/11/14 22:51:48;;;;;;;0.40;0.35;;;;;;;8.48;100.00;97131.59;15278654;19;20019;-54
2023/11/14 22:57:18;;;;;;;1.48;0.50;;;;;;;8.44;100.00;97138.34;15281055;19;20014;-53
2023/11/14 23:02:46;;;;;;;0.93;0.60;;;;;;;8.42;100.00;97136.84;15274870;19;20018;-51
2023/11/14 23:08:11;;;;;;;0.75;0.52;;;;;;;8.40;100.00;97145.06;15282203;19;20876;-50
2023/11/14 23:13:37;;;;;;;1.38;0.50;;;;;;;8.41;100.00;97152.09;15274424;19;20857;-49
2023/11/14 23:19:08;;;;;;;2.13;0.40;;;;;;;8.41;100.00;97157.47;15276568;19;20033;-55
2023/11/14 23:24:32;;;;;;;0.30;0.30;;;;;;;8.44;100.00;97156.28;15273447;19;20483;-51
2023/11/14 23:29:57;;;;;;;1.88;0.60;;;;;;;8.47;100.00;97163.97;15279940;19;20018;-50
2023/11/14 23:35:24;;;;;;;1.02;0.57;;;;;;;8.50;100.00;97171.72;15278201;19;20010;-52
2023/11/14 23:40:49;;;;;;;2.03;0.40;;;;;;;8.54;100.00;97169.50;15278770;19;20038;-51
2023/11/14 23:46:15;;;;;;;1.10;0.45;;;;;;;8.58;100.00;97178.88;15269987;19;20025;-54
2023/11/14 23:51:37;;;;;;;0.65;0.30;;;;;;;8.60;100.00;97188.41;15270658;19;20018;-52
2023/11/14 23:57:02;;;;;;;1.98;0.20;;;;;;;8.67;100.00;97201.09;15277943;19;20022;-50
